sensor_id;sensor_type;location;lat;lon;timestamp;P1;durP1;ratioP1;P2;durP2;ratioP2
47225;SDS011;32965;64.142;-21.912;2022-07-29T00:00:26;5.72;;;1.77;;
47225;SDS011;32965;64.142;-21.912;2022-07-29T00:03:00;2.70;;;1.40;;
47225;SDS011;32965;64.142;-21.912;2022-07-29T00:07:57;6.82;;;2.17;;
47225;SDS011;32965;64.142;-21.912;2022-07-29T00:10:26;7.68;;;1.92;;
47225;SDS011;32965;64.142;-21.912;2022-07-29T00:12:52;4.03;;;1.45;;
47225;SDS011;32965;64.142;-21.912;2022-07-29T00:15:20;5.20;;;1.33;;
47225;SDS011;32965;64.142;-21.912;2022-07-29T00:17:46;3.30;;;1.73;;
47225;SDS011;32965;64.142;-21.912;2022-07-29T00:20:11;4.15;;;1.65;;
47225;SDS011;32965;64.142;-21.912;2022-07-29T00:22:38;4.15;;;1.27;;
47225;SDS011;32965;64.142;-21.912;2022-07-29T00:28:01;3.20;;;1.10;;
47225;SDS011;32965;64.142;-21.912;2022-07-29T00:33:03;5.90;;;1.38;;
47225;SDS011;32965;64.142;-21.912;2022-07-29T00:37:55;3.00;;;1.42;;
47225;SDS011;32965;64.142;-21.912;2022-07-29T00:40:22;4.28;;;1.33;;
47225;SDS011;32965;64.142;-21.912;2022-07-29T00:42:54;3.97;;;1.20;;
47225;SDS011;32965;64.142;-21.912;2022-07-29T00:45:28;2.70;;;1.08;;
47225;SDS011;32965;64.142;-21.912;2022-07-29T00:48:00;2.88;;;1.20;;
47225;SDS011;32965;64.142;-21.912;2022-07-29T00:50:49;3.88;;;1.17;;
47225;SDS011;32965;64.142;-21.912;2022-07-29T00:53:15;5.07;;;1.48;;
47225;SDS011;32965;64.142;-21.912;2022-07-29T00:55:41;2.60;;;1.23;;
47225;SDS011;32965;64.142;-21.912;2022-07-29T00:58:07;4.65;;;1.70;;
47225;SDS011;32965;64.142;-21.912;2022-07-29T01:00:33;3.05;;;1.20;;
47225;SDS011;32965;64.142;-21.912;2022-07-29T01:03:01;2.35;;;0.90;;
47225;SDS011;32965;64.142;-21.912;2022-07-29T01:05:29;3.92;;;1.52;;
47225;SDS011;32965;64.142;-21.912;2022-07-29T01:07:56;2.45;;;1.20;;
47225;SDS011;32965;64.142;-21.912;2022-07-29T01:10:24;3.30;;;1.20;;
47225;SDS011;32965;64.142;-21.912;2022-07-29T01:12:58;1.95;;;1.10;;
47225;SDS011;32965;64.142;-21.912;2022-07-29T01:15:32;3.75;;;1.50;;
47225;SDS011;32965;64.142;-21.912;2022-07-29T01:30:15;3.40;;;1.10;;
47225;SDS011;32965;64.142;-21.912;2022-07-29T01:32:43;2.28;;;1.13;;
47225;SDS011;32965;64.142;-21.912;2022-07-29T01:35:20;3.70;;;1.10;;
47225;SDS011;32965;64.142;-21.912;2022-07-29T01:40:41;5.03;;;1.55;;
47225;SDS011;32965;64.142;-21.912;2022-07-29T01:43:19;5.43;;;1.33;;
47225;SDS011;32965;64.142;-21.912;2022-07-29T01:45:53;7.10;;;1.33;;
47225;SDS011;32965;64.142;-21.912;2022-07-29T01:51:32;6.80;;;1.40;;
47225;SDS011;32965;64.142;-21.912;2022-07-29T01:56:56;8.23;;;1.60;;
47225;SDS011;32965;64.142;-21.912;2022-07-29T01:59:24;5.60;;;1.23;;
47225;SDS011;32965;64.142;-21.912;2022-07-29T02:01:52;7.25;;;1.90;;
47225;SDS011;32965;64.142;-21.912;2022-07-29T02:04:22;7.00;;;2.13;;
47225;SDS011;32965;64.142;-21.912;2022-07-29T02:06:49;6.65;;;1.20;;
47225;SDS011;32965;64.142;-21.912;2022-07-29T02:09:18;9.50;;;1.70;;
47225;SDS011;32965;64.142;-21.912;2022-07-29T02:11:47;9.55;;;1.98;;
47225;SDS011;32965;64.142;-21.912;2022-07-29T02:17:08;8.30;;;1.25;;
47225;SDS011;32965;64.142;-21.912;2022-07-29T02:19:37;10.60;;;1.75;;
47225;SDS011;32965;64.142;-21.912;2022-07-29T02:22:04;9.65;;;1.63;;
47225;SDS011;32965;64.142;-21.912;2022-07-29T02:24:32;5.43;;;1.30;;
47225;SDS011;32965;64.142;-21.912;2022-07-29T02:29:29;2.65;;;1.08;;
47225;SDS011;32965;64.142;-21.912;2022-07-29T02:31:57;4.53;;;1.48;;
47225;SDS011;32965;64.142;-21.912;2022-07-29T02:34:25;4.32;;;1.33;;
47225;SDS011;32965;64.142;-21.912;2022-07-29T02:36:52;8.82;;;1.40;;
47225;SDS011;32965;64.142;-21.912;2022-07-29T02:39:20;2.38;;;1.05;;
47225;SDS011;32965;64.142;-21.912;2022-07-29T02:44:47;5.20;;;1.00;;
47225;SDS011;32965;64.142;-21.912;2022-07-29T02:47:16;3.67;;;1.15;;
47225;SDS011;32965;64.142;-21.912;2022-07-29T02:50:21;2.92;;;1.10;;
47225;SDS011;32965;64.142;-21.912;2022-07-29T02:53:13;4.30;;;0.95;;
47225;SDS011;32965;64.142;-21.912;2022-07-29T02:58:39;5.45;;;1.40;;
47225;SDS011;32965;64.142;-21.912;2022-07-29T03:01:10;4.90;;;1.13;;
47225;SDS011;32965;64.142;-21.912;2022-07-29T03:03:38;4.00;;;1.23;;
47225;SDS011;32965;64.142;-21.912;2022-07-29T03:08:34;6.28;;;1.27;;
47225;SDS011;32965;64.142;-21.912;2022-07-29T03:11:01;6.13;;;1.45;;
47225;SDS011;32965;64.142;-21.912;2022-07-29T03:13:28;4.85;;;1.20;;
47225;SDS011;32965;64.142;-21.912;2022-07-29T03:15:55;4.15;;;1.17;;
47225;SDS011;32965;64.142;-21.912;2022-07-29T03:18:23;8.25;;;1.95;;
47225;SDS011;32965;64.142;-21.912;2022-07-29T03:20:51;3.42;;;1.02;;
47225;SDS011;32965;64.142;-21.912;2022-07-29T03:23:21;6.82;;;1.15;;
47225;SDS011;32965;64.142;-21.912;2022-07-29T03:25:52;6.28;;;1.58;;
47225;SDS011;32965;64.142;-21.912;2022-07-29T03:28:18;4.55;;;0.95;;
47225;SDS011;32965;64.142;-21.912;2022-07-29T03:30:45;4.43;;;1.00;;
47225;SDS011;32965;64.142;-21.912;2022-07-29T03:33:14;5.32;;;1.70;;
47225;SDS011;32965;64.142;-21.912;2022-07-29T03:35:40;3.47;;;1.15;;
47225;SDS011;32965;64.142;-21.912;2022-07-29T03:38:06;3.10;;;1.30;;
47225;SDS011;32965;64.142;-21.912;2022-07-29T03:40:39;8.20;;;1.40;;
47225;SDS011;32965;64.142;-21.912;2022-07-29T03:43:46;5.15;;;1.23;;
47225;SDS011;32965;64.142;-21.912;2022-07-29T03:46:20;7.30;;;1.65;;
47225;SDS011;32965;64.142;-21.912;2022-07-29T03:48:52;6.07;;;1.52;;
47225;SDS011;32965;64.142;-21.912;2022-07-29T03:51:23;8.15;;;1.70;;
47225;SDS011;32965;64.142;-21.912;2022-07-29T03:53:49;4.63;;;1.40;;
47225;SDS011;32965;64.142;-21.912;2022-07-29T03:56:15;4.57;;;1.10;;
47225;SDS011;32965;64.142;-21.912;2022-07-29T03:58:42;5.28;;;1.40;;
47225;SDS011;32965;64.142;-21.912;2022-07-29T04:01:12;5.45;;;1.20;;
47225;SDS011;32965;64.142;-21.912;2022-07-29T04:03:38;1.95;;;1.00;;
47225;SDS011;32965;64.142;-21.912;2022-07-29T04:06:06;6.05;;;1.17;;
47225;SDS011;32965;64.142;-21.912;2022-07-29T04:08:34;7.28;;;1.70;;
47225;SDS011;32965;64.142;-21.912;2022-07-29T04:11:00;6.38;;;1.15;;
47225;SDS011;32965;64.142;-21.912;2022-07-29T04:13:27;5.72;;;1.13;;
47225;SDS011;32965;64.142;-21.912;2022-07-29T04:15:53;4.63;;;1.17;;
47225;SDS011;32965;64.142;-21.912;2022-07-29T04:18:19;4.13;;;1.20;;
47225;SDS011;32965;64.142;-21.912;2022-07-29T04:20:45;4.15;;;1.13;;
47225;SDS011;32965;64.142;-21.912;2022-07-29T04:23:12;5.15;;;1.33;;
47225;SDS011;32965;64.142;-21.912;2022-07-29T04:25:38;4.80;;;1.42;;
47225;SDS011;32965;64.142;-21.912;2022-07-29T04:28:05;5.22;;;1.40;;
47225;SDS011;32965;64.142;-21.912;2022-07-29T04:30:31;3.83;;;1.30;;
47225;SDS011;32965;64.142;-21.912;2022-07-29T04:32:58;5.40;;;0.98;;
47225;SDS011;32965;64.142;-21.912;2022-07-29T04:37:51;8.18;;;1.13;;
47225;SDS011;32965;64.142;-21.912;2022-07-29T04:40:16;3.65;;;1.35;;
47225;SDS011;32965;64.142;-21.912;2022-07-29T04:42:42;6.07;;;1.10;;
47225;SDS011;32965;64.142;-21.912;2022-07-29T04:45:08;4.70;;;1.10;;
47225;SDS011;32965;64.142;-21.912;2022-07-29T04:47:34;3.53;;;1.10;;
47225;SDS011;32965;64.142;-21.912;2022-07-29T04:50:00;7.80;;;1.60;;
47225;SDS011;32965;64.142;-21.912;2022-07-29T04:52:26;3.50;;;1.58;;
47225;SDS011;32965;64.142;-21.912;2022-07-29T04:54:53;4.10;;;1.30;;
47225;SDS011;32965;64.142;-21.912;2022-07-29T04:57:19;4.35;;;1.17;;
47225;SDS011;32965;64.142;-21.912;2022-07-29T04:59:44;3.13;;;1.42;;
47225;SDS011;32965;64.142;-21.912;2022-07-29T05:02:10;3.55;;;1.30;;
47225;SDS011;32965;64.142;-21.912;2022-07-29T05:04:36;5.80;;;1.17;;
47225;SDS011;32965;64.142;-21.912;2022-07-29T05:07:03;3.95;;;1.23;;
47225;SDS011;32965;64.142;-21.912;2022-07-29T05:09:28;4.30;;;1.20;;
47225;SDS011;32965;64.142;-21.912;2022-07-29T05:11:54;6.13;;;1.40;;
47225;SDS011;32965;64.142;-21.912;2022-07-29T05:16:48;4.32;;;1.58;;
47225;SDS011;32965;64.142;-21.912;2022-07-29T05:19:16;9.10;;;1.70;;
47225;SDS011;32965;64.142;-21.912;2022-07-29T05:21:43;4.15;;;1.40;;
47225;SDS011;32965;64.142;-21.912;2022-07-29T05:24:10;5.35;;;1.10;;
47225;SDS011;32965;64.142;-21.912;2022-07-29T05:26:36;4.93;;;1.52;;
47225;SDS011;32965;64.142;-21.912;2022-07-29T05:29:02;5.18;;;1.25;;
47225;SDS011;32965;64.142;-21.912;2022-07-29T05:33:54;3.85;;;1.88;;
47225;SDS011;32965;64.142;-21.912;2022-07-29T05:36:20;5.50;;;2.00;;
47225;SDS011;32965;64.142;-21.912;2022-07-29T05:38:46;7.82;;;1.83;;
47225;SDS011;32965;64.142;-21.912;2022-07-29T05:41:12;7.38;;;1.40;;
47225;SDS011;32965;64.142;-21.912;2022-07-29T05:43:38;5.20;;;1.25;;
47225;SDS011;32965;64.142;-21.912;2022-07-29T05:46:04;6.97;;;1.40;;
47225;SDS011;32965;64.142;-21.912;2022-07-29T05:48:29;5.07;;;1.80;;
47225;SDS011;32965;64.142;-21.912;2022-07-29T05:50:55;4.65;;;1.70;;
47225;SDS011;32965;64.142;-21.912;2022-07-29T05:53:21;5.65;;;1.48;;
47225;SDS011;32965;64.142;-21.912;2022-07-29T05:55:48;4.50;;;1.50;;
47225;SDS011;32965;64.142;-21.912;2022-07-29T05:58:15;3.28;;;0.90;;
47225;SDS011;32965;64.142;-21.912;2022-07-29T06:00:47;4.88;;;1.25;;
47225;SDS011;32965;64.142;-21.912;2022-07-29T06:03:13;2.85;;;1.17;;
47225;SDS011;32965;64.142;-21.912;2022-07-29T06:05:39;6.72;;;1.25;;
47225;SDS011;32965;64.142;-21.912;2022-07-29T06:08:14;4.32;;;1.60;;
47225;SDS011;32965;64.142;-21.912;2022-07-29T06:10:39;10.15;;;1.70;;
47225;SDS011;32965;64.142;-21.912;2022-07-29T06:13:12;2.72;;;1.08;;
47225;SDS011;32965;64.142;-21.912;2022-07-29T06:15:50;7.50;;;2.05;;
47225;SDS011;32965;64.142;-21.912;2022-07-29T06:18:16;6.43;;;1.50;;
47225;SDS011;32965;64.142;-21.912;2022-07-29T06:20:46;4.13;;;1.35;;
47225;SDS011;32965;64.142;-21.912;2022-07-29T06:23:12;5.85;;;1.63;;
47225;SDS011;32965;64.142;-21.912;2022-07-29T06:25:39;6.88;;;1.23;;
47225;SDS011;32965;64.142;-21.912;2022-07-29T06:28:06;8.05;;;1.25;;
47225;SDS011;32965;64.142;-21.912;2022-07-29T06:30:31;7.32;;;1.52;;
47225;SDS011;32965;64.142;-21.912;2022-07-29T06:32:57;6.72;;;1.40;;
47225;SDS011;32965;64.142;-21.912;2022-07-29T06:35:23;6.20;;;1.50;;
47225;SDS011;32965;64.142;-21.912;2022-07-29T06:37:55;5.38;;;1.73;;
47225;SDS011;32965;64.142;-21.912;2022-07-29T06:43:11;12.25;;;2.63;;
47225;SDS011;32965;64.142;-21.912;2022-07-29T06:45:47;8.27;;;1.50;;
47225;SDS011;32965;64.142;-21.912;2022-07-29T06:48:19;8.55;;;1.10;;
47225;SDS011;32965;64.142;-21.912;2022-07-29T06:53:14;6.30;;;1.88;;
47225;SDS011;32965;64.142;-21.912;2022-07-29T06:58:10;5.50;;;1.27;;
47225;SDS011;32965;64.142;-21.912;2022-07-29T07:00:36;6.10;;;1.63;;
47225;SDS011;32965;64.142;-21.912;2022-07-29T07:03:11;5.78;;;1.38;;
47225;SDS011;32965;64.142;-21.912;2022-07-29T07:05:58;5.75;;;1.33;;
47225;SDS011;32965;64.142;-21.912;2022-07-29T07:10:50;5.93;;;1.23;;
47225;SDS011;32965;64.142;-21.912;2022-07-29T07:13:17;3.58;;;1.33;;
47225;SDS011;32965;64.142;-21.912;2022-07-29T07:15:43;4.65;;;0.98;;
47225;SDS011;32965;64.142;-21.912;2022-07-29T07:18:10;3.75;;;1.10;;
47225;SDS011;32965;64.142;-21.912;2022-07-29T07:20:36;5.60;;;1.30;;
47225;SDS011;32965;64.142;-21.912;2022-07-29T07:25:32;2.47;;;0.93;;
47225;SDS011;32965;64.142;-21.912;2022-07-29T07:27:58;5.80;;;1.05;;
47225;SDS011;32965;64.142;-21.912;2022-07-29T07:30:32;3.47;;;1.00;;
47225;SDS011;32965;64.142;-21.912;2022-07-29T07:32:58;4.22;;;1.00;;
47225;SDS011;32965;64.142;-21.912;2022-07-29T07:35:25;4.20;;;1.33;;
47225;SDS011;32965;64.142;-21.912;2022-07-29T07:38:13;4.50;;;1.20;;
47225;SDS011;32965;64.142;-21.912;2022-07-29T07:40:42;5.97;;;1.65;;
47225;SDS011;32965;64.142;-21.912;2022-07-29T07:43:14;2.55;;;1.08;;
47225;SDS011;32965;64.142;-21.912;2022-07-29T07:45:40;4.55;;;0.98;;
47225;SDS011;32965;64.142;-21.912;2022-07-29T07:48:11;2.63;;;1.02;;
47225;SDS011;32965;64.142;-21.912;2022-07-29T07:50:38;4.53;;;0.90;;
47225;SDS011;32965;64.142;-21.912;2022-07-29T07:53:05;4.32;;;0.63;;
47225;SDS011;32965;64.142;-21.912;2022-07-29T07:55:30;2.75;;;1.10;;
47225;SDS011;32965;64.142;-21.912;2022-07-29T07:57:58;2.35;;;0.82;;
47225;SDS011;32965;64.142;-21.912;2022-07-29T08:00:48;3.42;;;1.10;;
47225;SDS011;32965;64.142;-21.912;2022-07-29T08:03:15;1.13;;;0.80;;
47225;SDS011;32965;64.142;-21.912;2022-07-29T08:05:44;2.65;;;1.00;;
47225;SDS011;32965;64.142;-21.912;2022-07-29T08:08:15;2.05;;;0.90;;
47225;SDS011;32965;64.142;-21.912;2022-07-29T08:10:47;3.22;;;0.88;;
47225;SDS011;32965;64.142;-21.912;2022-07-29T08:13:24;3.92;;;0.98;;
47225;SDS011;32965;64.142;-21.912;2022-07-29T08:15:55;1.25;;;0.60;;
47225;SDS011;32965;64.142;-21.912;2022-07-29T08:18:42;4.47;;;0.75;;
47225;SDS011;32965;64.142;-21.912;2022-07-29T08:21:09;8.90;;;1.20;;
47225;SDS011;32965;64.142;-21.912;2022-07-29T08:23:37;2.70;;;1.00;;
47225;SDS011;32965;64.142;-21.912;2022-07-29T08:26:10;2.30;;;0.70;;
47225;SDS011;32965;64.142;-21.912;2022-07-29T08:28:37;3.10;;;0.70;;
47225;SDS011;32965;64.142;-21.912;2022-07-29T08:31:05;3.80;;;0.57;;
47225;SDS011;32965;64.142;-21.912;2022-07-29T08:33:32;5.65;;;0.80;;
47225;SDS011;32965;64.142;-21.912;2022-07-29T08:35:59;3.95;;;1.00;;
47225;SDS011;32965;64.142;-21.912;2022-07-29T08:38:25;1.92;;;0.60;;
47225;SDS011;32965;64.142;-21.912;2022-07-29T08:40:54;1.98;;;0.70;;
47225;SDS011;32965;64.142;-21.912;2022-07-29T08:45:49;4.00;;;0.82;;
47225;SDS011;32965;64.142;-21.912;2022-07-29T08:48:17;1.35;;;0.98;;
47225;SDS011;32965;64.142;-21.912;2022-07-29T08:50:45;0.73;;;0.40;;
47225;SDS011;32965;64.142;-21.912;2022-07-29T08:53:31;3.67;;;0.80;;
47225;SDS011;32965;64.142;-21.912;2022-07-29T08:56:18;1.20;;;0.50;;
47225;SDS011;32965;64.142;-21.912;2022-07-29T08:58:46;1.40;;;0.60;;
47225;SDS011;32965;64.142;-21.912;2022-07-29T09:01:15;2.97;;;0.73;;
47225;SDS011;32965;64.142;-21.912;2022-07-29T09:04:03;4.93;;;0.70;;
47225;SDS011;32965;64.142;-21.912;2022-07-29T09:06:52;2.00;;;0.60;;
47225;SDS011;32965;64.142;-21.912;2022-07-29T09:09:48;1.23;;;0.63;;
47225;SDS011;32965;64.142;-21.912;2022-07-29T09:12:14;0.77;;;0.60;;
47225;SDS011;32965;64.142;-21.912;2022-07-29T09:14:44;1.73;;;0.75;;
47225;SDS011;32965;64.142;-21.912;2022-07-29T09:17:40;2.55;;;0.40;;
47225;SDS011;32965;64.142;-21.912;2022-07-29T09:20:28;3.55;;;0.90;;
47225;SDS011;32965;64.142;-21.912;2022-07-29T09:23:16;0.68;;;0.52;;
47225;SDS011;32965;64.142;-21.912;2022-07-29T09:25:50;1.30;;;0.65;;
47225;SDS011;32965;64.142;-21.912;2022-07-29T09:28:41;1.63;;;0.57;;
47225;SDS011;32965;64.142;-21.912;2022-07-29T09:34:26;2.13;;;0.60;;
47225;SDS011;32965;64.142;-21.912;2022-07-29T09:37:28;1.10;;;0.68;;
47225;SDS011;32965;64.142;-21.912;2022-07-29T09:39:54;2.72;;;1.08;;
47225;SDS011;32965;64.142;-21.912;2022-07-29T09:42:29;2.65;;;1.00;;
47225;SDS011;32965;64.142;-21.912;2022-07-29T09:44:58;2.42;;;1.10;;
47225;SDS011;32965;64.142;-21.912;2022-07-29T09:47:42;1.70;;;0.75;;
47225;SDS011;32965;64.142;-21.912;2022-07-29T09:50:42;1.48;;;0.80;;
47225;SDS011;32965;64.142;-21.912;2022-07-29T09:53:09;2.53;;;0.80;;
47225;SDS011;32965;64.142;-21.912;2022-07-29T09:55:50;3.03;;;0.75;;
47225;SDS011;32965;64.142;-21.912;2022-07-29T09:58:21;1.08;;;0.57;;
47225;SDS011;32965;64.142;-21.912;2022-07-29T10:00:48;2.72;;;0.85;;
47225;SDS011;32965;64.142;-21.912;2022-07-29T10:03:21;2.80;;;0.75;;
47225;SDS011;32965;64.142;-21.912;2022-07-29T10:06:12;1.20;;;0.70;;
47225;SDS011;32965;64.142;-21.912;2022-07-29T10:10:01;0.70;;;0.50;;
47225;SDS011;32965;64.142;-21.912;2022-07-29T10:12:27;0.40;;;0.40;;
47225;SDS011;32965;64.142;-21.912;2022-07-29T10:14:56;0.50;;;0.35;;
47225;SDS011;32965;64.142;-21.912;2022-07-29T10:17:22;1.67;;;0.50;;
47225;SDS011;32965;64.142;-21.912;2022-07-29T10:20:08;0.90;;;0.50;;
47225;SDS011;32965;64.142;-21.912;2022-07-29T10:22:35;0.50;;;0.32;;
47225;SDS011;32965;64.142;-21.912;2022-07-29T10:25:02;2.03;;;0.40;;
47225;SDS011;32965;64.142;-21.912;2022-07-29T10:27:31;2.60;;;0.60;;
47225;SDS011;32965;64.142;-21.912;2022-07-29T10:29:57;2.03;;;0.60;;
47225;SDS011;32965;64.142;-21.912;2022-07-29T10:43:49;0.90;;;0.30;;
47225;SDS011;32965;64.142;-21.912;2022-07-29T10:46:50;0.60;;;0.17;;
47225;SDS011;32965;64.142;-21.912;2022-07-29T10:49:34;0.43;;;0.30;;
47225;SDS011;32965;64.142;-21.912;2022-07-29T10:52:02;1.23;;;0.80;;
47225;SDS011;32965;64.142;-21.912;2022-07-29T10:55:00;0.63;;;0.20;;
47225;SDS011;32965;64.142;-21.912;2022-07-29T11:08:16;0.20;;;0.10;;
47225;SDS011;32965;64.142;-21.912;2022-07-29T11:14:01;1.77;;;0.50;;
47225;SDS011;32965;64.142;-21.912;2022-07-29T11:16:57;1.30;;;0.57;;
47225;SDS011;32965;64.142;-21.912;2022-07-29T11:19:50;0.65;;;0.08;;
47225;SDS011;32965;64.142;-21.912;2022-07-29T11:22:37;2.33;;;0.10;;
47225;SDS011;32965;64.142;-21.912;2022-07-29T11:25:24;0.20;;;0.10;;
47225;SDS011;32965;64.142;-21.912;2022-07-29T11:28:02;1.20;;;0.10;;
47225;SDS011;32965;64.142;-21.912;2022-07-29T11:31:00;0.13;;;0.10;;
47225;SDS011;32965;64.142;-21.912;2022-07-29T11:33:38;0.15;;;0.10;;
47225;SDS011;32965;64.142;-21.912;2022-07-29T11:36:14;0.10;;;0.10;;
47225;SDS011;32965;64.142;-21.912;2022-07-29T11:39:24;0.80;;;0.40;;
47225;SDS011;32965;64.142;-21.912;2022-07-29T11:41:54;0.28;;;0.10;;
47225;SDS011;32965;64.142;-21.912;2022-07-29T11:45:01;1.95;;;0.10;;
47225;SDS011;32965;64.142;-21.912;2022-07-29T11:50:31;0.20;;;0.20;;
47225;SDS011;32965;64.142;-21.912;2022-07-29T11:53:10;0.47;;;0.20;;
47225;SDS011;32965;64.142;-21.912;2022-07-29T11:55:38;0.30;;;0.20;;
47225;SDS011;32965;64.142;-21.912;2022-07-29T11:58:06;2.72;;;0.20;;
47225;SDS011;32965;64.142;-21.912;2022-07-29T12:00:40;1.45;;;0.20;;
47225;SDS011;32965;64.142;-21.912;2022-07-29T12:03:24;0.00;;;0.00;;
47225;SDS011;32965;64.142;-21.912;2022-07-29T12:05:51;0.65;;;0.20;;
47225;SDS011;32965;64.142;-21.912;2022-07-29T12:08:18;0.40;;;0.13;;
47225;SDS011;32965;64.142;-21.912;2022-07-29T12:11:03;0.35;;;0.20;;
47225;SDS011;32965;64.142;-21.912;2022-07-29T12:13:47;0.40;;;0.10;;
47225;SDS011;32965;64.142;-21.912;2022-07-29T12:16:20;0.43;;;0.20;;
47225;SDS011;32965;64.142;-21.912;2022-07-29T12:19:03;0.20;;;0.10;;
47225;SDS011;32965;64.142;-21.912;2022-07-29T12:21:51;1.38;;;0.35;;
47225;SDS011;32965;64.142;-21.912;2022-07-29T12:29:31;0.35;;;0.20;;
47225;SDS011;32965;64.142;-21.912;2022-07-29T12:32:06;0.25;;;0.25;;
47225;SDS011;32965;64.142;-21.912;2022-07-29T12:34:40;0.38;;;0.00;;
47225;SDS011;32965;64.142;-21.912;2022-07-29T12:37:43;2.25;;;0.20;;
47225;SDS011;32965;64.142;-21.912;2022-07-29T12:40:13;0.20;;;0.10;;
47225;SDS011;32965;64.142;-21.912;2022-07-29T12:58:42;0.43;;;0.20;;
47225;SDS011;32965;64.142;-21.912;2022-07-29T13:01:16;0.30;;;0.10;;
47225;SDS011;32965;64.142;-21.912;2022-07-29T13:13:58;0.55;;;0.20;;
47225;SDS011;32965;64.142;-21.912;2022-07-29T13:16:30;0.38;;;0.30;;
47225;SDS011;32965;64.142;-21.912;2022-07-29T13:26:39;1.00;;;0.28;;
47225;SDS011;32965;64.142;-21.912;2022-07-29T13:29:27;0.68;;;0.10;;
47225;SDS011;32965;64.142;-21.912;2022-07-29T13:32:19;0.82;;;0.10;;
47225;SDS011;32965;64.142;-21.912;2022-07-29T13:39:14;0.15;;;0.10;;
47225;SDS011;32965;64.142;-21.912;2022-07-29T13:41:42;2.33;;;0.63;;
47225;SDS011;32965;64.142;-21.912;2022-07-29T13:44:15;0.40;;;0.20;;
47225;SDS011;32965;64.142;-21.912;2022-07-29T13:47:03;2.35;;;0.20;;
47225;SDS011;32965;64.142;-21.912;2022-07-29T13:49:29;4.80;;;0.40;;
47225;SDS011;32965;64.142;-21.912;2022-07-29T13:51:55;1.48;;;0.30;;
47225;SDS011;32965;64.142;-21.912;2022-07-29T13:54:22;1.00;;;0.63;;
47225;SDS011;32965;64.142;-21.912;2022-07-29T13:56:49;0.10;;;0.10;;
47225;SDS011;32965;64.142;-21.912;2022-07-29T13:59:15;0.85;;;0.08;;
47225;SDS011;32965;64.142;-21.912;2022-07-29T14:01:41;1.05;;;0.20;;
47225;SDS011;32965;64.142;-21.912;2022-07-29T14:04:09;1.08;;;0.10;;
47225;SDS011;32965;64.142;-21.912;2022-07-29T14:06:38;0.10;;;0.10;;
47225;SDS011;32965;64.142;-21.912;2022-07-29T14:11:35;0.20;;;0.20;;
47225;SDS011;32965;64.142;-21.912;2022-07-29T14:14:03;0.35;;;0.17;;
47225;SDS011;32965;64.142;-21.912;2022-07-29T14:16:31;0.30;;;0.10;;
47225;SDS011;32965;64.142;-21.912;2022-07-29T14:18:57;1.10;;;0.10;;
47225;SDS011;32965;64.142;-21.912;2022-07-29T14:21:23;1.05;;;0.73;;
47225;SDS011;32965;64.142;-21.912;2022-07-29T14:23:50;0.73;;;0.10;;
47225;SDS011;32965;64.142;-21.912;2022-07-29T14:28:45;0.10;;;0.10;;
47225;SDS011;32965;64.142;-21.912;2022-07-29T14:31:11;0.40;;;0.10;;
47225;SDS011;32965;64.142;-21.912;2022-07-29T14:33:37;0.50;;;0.20;;
47225;SDS011;32965;64.142;-21.912;2022-07-29T14:36:03;0.10;;;0.05;;
47225;SDS011;32965;64.142;-21.912;2022-07-29T14:38:29;0.10;;;0.10;;
47225;SDS011;32965;64.142;-21.912;2022-07-29T14:40:54;0.05;;;0.05;;
47225;SDS011;32965;64.142;-21.912;2022-07-29T14:43:22;0.10;;;0.10;;
47225;SDS011;32965;64.142;-21.912;2022-07-29T14:45:51;0.20;;;0.20;;
47225;SDS011;32965;64.142;-21.912;2022-07-29T14:48:18;0.43;;;0.03;;
47225;SDS011;32965;64.142;-21.912;2022-07-29T14:50:45;0.25;;;0.00;;
47225;SDS011;32965;64.142;-21.912;2022-07-29T14:53:11;0.47;;;0.20;;
47225;SDS011;32965;64.142;-21.912;2022-07-29T14:55:40;0.03;;;0.03;;
47225;SDS011;32965;64.142;-21.912;2022-07-29T14:58:07;0.82;;;0.10;;
47225;SDS011;32965;64.142;-21.912;2022-07-29T15:00:34;0.10;;;0.10;;
47225;SDS011;32965;64.142;-21.912;2022-07-29T15:03:02;0.08;;;0.05;;
47225;SDS011;32965;64.142;-21.912;2022-07-29T15:05:29;0.77;;;0.20;;
47225;SDS011;32965;64.142;-21.912;2022-07-29T15:07:57;1.35;;;0.22;;
47225;SDS011;32965;64.142;-21.912;2022-07-29T15:10:23;0.20;;;0.20;;
47225;SDS011;32965;64.142;-21.912;2022-07-29T15:15:21;1.50;;;0.30;;
47225;SDS011;32965;64.142;-21.912;2022-07-29T15:17:49;2.25;;;1.13;;
47225;SDS011;32965;64.142;-21.912;2022-07-29T15:20:15;2.75;;;0.98;;
47225;SDS011;32965;64.142;-21.912;2022-07-29T15:25:10;0.85;;;0.30;;
47225;SDS011;32965;64.142;-21.912;2022-07-29T15:27:35;3.17;;;0.80;;
47225;SDS011;32965;64.142;-21.912;2022-07-29T15:30:01;3.53;;;2.60;;
47225;SDS011;32965;64.142;-21.912;2022-07-29T15:32:29;2.17;;;0.20;;
47225;SDS011;32965;64.142;-21.912;2022-07-29T15:34:55;0.93;;;0.30;;
47225;SDS011;32965;64.142;-21.912;2022-07-29T15:37:21;0.35;;;0.10;;
47225;SDS011;32965;64.142;-21.912;2022-07-29T15:39:46;1.27;;;0.13;;
47225;SDS011;32965;64.142;-21.912;2022-07-29T15:42:12;0.17;;;0.17;;
47225;SDS011;32965;64.142;-21.912;2022-07-29T15:44:38;0.40;;;0.25;;
47225;SDS011;32965;64.142;-21.912;2022-07-29T15:47:04;0.13;;;0.10;;
47225;SDS011;32965;64.142;-21.912;2022-07-29T15:49:38;0.60;;;0.22;;
47225;SDS011;32965;64.142;-21.912;2022-07-29T15:52:19;0.10;;;0.10;;
47225;SDS011;32965;64.142;-21.912;2022-07-29T15:54:59;0.20;;;0.10;;
47225;SDS011;32965;64.142;-21.912;2022-07-29T15:57:25;0.22;;;0.10;;
47225;SDS011;32965;64.142;-21.912;2022-07-29T15:59:57;0.90;;;0.22;;
47225;SDS011;32965;64.142;-21.912;2022-07-29T16:02:33;1.02;;;0.15;;
47225;SDS011;32965;64.142;-21.912;2022-07-29T16:04:59;2.50;;;0.20;;
47225;SDS011;32965;64.142;-21.912;2022-07-29T16:07:41;0.10;;;0.00;;
47225;SDS011;32965;64.142;-21.912;2022-07-29T16:10:31;0.75;;;0.20;;
47225;SDS011;32965;64.142;-21.912;2022-07-29T16:13:01;0.40;;;0.10;;
47225;SDS011;32965;64.142;-21.912;2022-07-29T16:15:30;1.17;;;0.05;;
47225;SDS011;32965;64.142;-21.912;2022-07-29T16:17:59;3.05;;;0.40;;
47225;SDS011;32965;64.142;-21.912;2022-07-29T16:20:26;0.20;;;0.10;;
47225;SDS011;32965;64.142;-21.912;2022-07-29T16:22:56;0.93;;;0.30;;
47225;SDS011;32965;64.142;-21.912;2022-07-29T16:25:26;0.77;;;0.30;;
47225;SDS011;32965;64.142;-21.912;2022-07-29T16:27:52;0.45;;;0.13;;
47225;SDS011;32965;64.142;-21.912;2022-07-29T16:30:21;0.30;;;0.30;;
47225;SDS011;32965;64.142;-21.912;2022-07-29T16:33:15;1.25;;;0.50;;
47225;SDS011;32965;64.142;-21.912;2022-07-29T16:35:45;0.52;;;0.20;;
47225;SDS011;32965;64.142;-21.912;2022-07-29T16:38:14;1.38;;;0.28;;
47225;SDS011;32965;64.142;-21.912;2022-07-29T16:40:43;1.95;;;0.15;;
47225;SDS011;32965;64.142;-21.912;2022-07-29T16:43:41;0.40;;;0.20;;
47225;SDS011;32965;64.142;-21.912;2022-07-29T16:46:13;1.65;;;0.43;;
47225;SDS011;32965;64.142;-21.912;2022-07-29T16:54:51;0.85;;;0.20;;
47225;SDS011;32965;64.142;-21.912;2022-07-29T17:03:48;1.23;;;0.50;;
47225;SDS011;32965;64.142;-21.912;2022-07-29T17:12:07;0.30;;;0.20;;
47225;SDS011;32965;64.142;-21.912;2022-07-29T17:14:59;2.13;;;0.20;;
47225;SDS011;32965;64.142;-21.912;2022-07-29T17:17:50;1.23;;;0.20;;
47225;SDS011;32965;64.142;-21.912;2022-07-29T17:20:16;5.50;;;0.25;;
47225;SDS011;32965;64.142;-21.912;2022-07-29T17:23:02;0.47;;;0.20;;
47225;SDS011;32965;64.142;-21.912;2022-07-29T17:25:58;2.65;;;0.20;;
47225;SDS011;32965;64.142;-21.912;2022-07-29T17:28:31;3.28;;;0.30;;
47225;SDS011;32965;64.142;-21.912;2022-07-29T17:31:05;2.70;;;0.50;;
47225;SDS011;32965;64.142;-21.912;2022-07-29T17:33:48;1.08;;;0.32;;
47225;SDS011;32965;64.142;-21.912;2022-07-29T17:38:50;1.38;;;0.52;;
47225;SDS011;32965;64.142;-21.912;2022-07-29T17:43:53;0.10;;;0.10;;